Detall de PIREP

Printer-friendly versionPDF version

[2012/06/01 16:18:00]
Flight IATA:CT3215
Pilot Number:042
Company ICAO:CAT
Aircraft Type:MD11/E
PAX:250
Aircraft Registration:PAX
Departing Airport: EKCH
Destination Airport: LEPA
Alternate Airport:LEBL
Online: VATSIM
Route:NEXEN T503 MIC UN850 NATOR UN869 MILPA UN852 VERSO UL129 LUNIK
Flight Level:F370
No Slew and time accel
No pause
Crash detect
Detect pilot in Cockpit between each 30 and 45 minutes
16:18 Zero fuel Weight: 429999 Lbs, Fuel Weight: 160059 Lbs
16:18 VATSIM:EKCH 011550Z 29022G34KT 9999 FEW035CB BKN040 11/05 Q1006 TEMPO 29020G34KT
16:18 VATSIM:LEPA 011600Z 23010KT 200V260 CAVOK 26/15 Q1016 NOSIG
16:18 VOICE CATALONIAN
16:23 Parking Brakes off
16:31 Take-off
16:31 Take off Weight: 588238 Lbs
16:31 Wind: 289º @ 022 Knots Heading: 224º
16:31 POS N55º 35´ 59´´ E012º 36´ 55´´
16:31 Flaps:4 at 197 Knots
16:31 Gear Up: 201 Knots
16:32 Flaps:3 at 185 Knots
16:32 Flaps:4 at 184 Knots
16:32 Flaps:3 at 181 Knots
16:32 Flaps:2 at 180 Knots
16:32 Flaps:1 at 179 Knots
16:32 Flaps:0 at 174 Knots
16:32 Flaps:1 at 190 Knots
16:32 Flaps:0 at 204 Knots
16:46 Wind:294º@072 Knots Heading: 225º Ground Speed: 427 Knots Altitude 24629 ft
17:01 Wind:290º@055 Knots Heading: 209º Ground Speed: 470 Knots Altitude 35574 ft
17:09 TOC
17:09 Fuel Weight: 139967 Lb
17:10 TOD
17:10 Fuel Weight: 139881 Lb
17:10 TOC
17:10 Fuel Weight: 139701 Lb
17:16 Wind:292º@028 Knots Heading: 191º Ground Speed: 480 Knots Altitude 37034 ft
17:17 TOD
17:17 Fuel Weight: 137726 Lb
17:17 TOC
17:17 Fuel Weight: 137701 Lb
17:18 TOD
17:18 Fuel Weight: 137418 Lb
17:31 Wind:306º@022 Knots Heading: 189º Ground Speed: 483 Knots Altitude 36604 ft
17:46 Wind:330º@020 Knots Heading: 236º Ground Speed: 477 Knots Altitude 36115 ft
18:01 Wind:334º@023 Knots Heading: 178º Ground Speed: 511 Knots Altitude 35062 ft
18:16 Wind:296º@013 Knots Heading: 204º Ground Speed: 496 Knots Altitude 34967 ft
18:31 Wind:192º@012 Knots Heading: 190º Ground Speed: 478 Knots Altitude 35019 ft
18:46 Wind:214º@010 Knots Heading: 179º Ground Speed: 374 Knots Altitude 24563 ft
18:47 Flaps:1 at 252 Knots
18:47 Flaps:0 at 253 Knots
18:49 Flaps:1 at 241 Knots
18:49 Flaps:2 at 240 Knots
18:49 Flaps:3 at 239 Knots
18:50 Flaps:4 at 238 Knots
18:51 Flaps:5 at 216 Knots
18:58 Flaps:4 at 217 Knots
19:00 Flaps:5 at 216 Knots
19:00 Flaps:6 at 217 Knots
19:01 Wind:209º@002 Knots Heading: 239º Ground Speed: 227 Knots Altitude 3346 ft
19:01 Flaps:5 at 217 Knots
19:01 Flaps:6 at 217 Knots
19:01 Flaps:5 at 217 Knots
19:02 Flaps:6 at 212 Knots
19:02 Gear Down: 197 Knots
19:02 Flaps:7 at 189 Knots
19:05 Flaps:8 at 174 Knots
19:05 TouchDown:Rate -149 ft/min Speed: 172 Knots
19:05 VATSIM:LEPA 011830Z 21001KT CAVOK 25/15 Q1015 NOSIG
19:05 Land
19:05 Wind:212º@001 Knots
19:05 Heading: 238º
19:05 Flight Duration: 02:34
19:05 Landing Weight: 536737 Lbs
19:05 POS N39º 33´ 08´´ E002º 43´ 17´´
19:10 Parking brakes on
19:10 Block to Block Duration: 02:47
19:10 Final Fuel: 105837 Lbls
19:10 Spent Fuel: 54221 Lbls
19:10 Flight Length: 1015 NM
19:10 TOD Land Length: 792 NM

Exportar CSV

Powered by Drupal - Modified by Danger4k